Time;durP1;ratioP1;P1;durP2;ratioP2;P2;SDS_P1;SDS_P2;PMS_P1;PMS_P2;Temp;Humidity;BMP_temperature;BMP_pressure;BME280_temperature;BME280_humidity;BME280_pressure;Samples;Min_cycle;Max_cycle;Signal;HPM_P1;HPM_P2
2022/06/27 00:01:53;;;;;;;;;;;;;;;21.06;93.52;152948.27;1724177;83;20401;-60
2022/06/27 00:04:20;;;;;;;;;;;;;;;21.05;93.43;152945.66;1724155;83;21324;-60
2022/06/27 00:06:47;;;;;;;;;;;;;;;21.06;93.42;152946.98;1724075;83;20189;-60
2022/06/27 00:09:14;;;;;;;;;;;;;;;21.03;93.34;152940.44;1724318;83;20145;-60
2022/06/27 00:11:41;;;;;;;;;;;;;;;21.05;93.28;152945.66;1724095;83;20174;-60
2022/06/27 00:14:10;;;;;;;;;;;;;;;21.05;93.33;152945.66;1724288;83;20101;-60
2022/06/27 00:16:37;;;;;;;;;;;;;;;21.07;93.53;152949.59;1719749;83;21113;-60
2022/06/27 00:19:04;;;;;;;;;;;;;;;21.10;93.39;152958.70;1688624;85;20183;-60
2022/06/27 00:21:31;;;;;;;;;;;;;;;21.09;93.31;152956.09;1688830;85;20158;-60
2022/06/27 00:23:58;;;;;;;;;;;;;;;21.10;93.22;152957.44;1688665;85;20139;-60
2022/06/27 00:26:24;;;;;;;;;;;;;;;21.11;93.31;152961.38;1688676;85;20151;-60
2022/06/27 00:28:52;;;;;;;;;;;;;;;21.13;93.42;152966.59;1688655;85;21243;-60
2022/06/27 00:31:19;;;;;;;;;;;;;;;21.11;93.82;152961.38;1688851;85;20156;-60
2022/06/27 00:33:46;;;;;;;;;;;;;;;21.10;94.13;152958.70;1688539;85;20148;-60
2022/06/27 00:36:13;;;;;;;;;;;;;;;21.08;94.53;152952.20;1688495;85;21183;-60
2022/06/27 00:38:40;;;;;;;;;;;;;;;21.03;94.78;152940.44;1688729;85;20174;-60
2022/06/27 00:41:07;;;;;;;;;;;;;;;20.98;94.98;152928.66;1688691;85;21221;-60
2022/06/27 00:43:34;;;;;;;;;;;;;;;20.98;95.19;152927.38;1688704;85;20412;-60
2022/06/27 00:46:00;;;;;;;;;;;;;;;20.98;95.11;152927.38;1688571;85;20417;-60
2022/06/27 00:48:27;;;;;;;;;;;;;;;20.96;95.09;152923.44;1688620;85;20168;-60
2022/06/27 00:50:56;;;;;;;;;;;;;;;20.96;95.07;152923.44;1688645;85;20210;-60
2022/06/27 00:53:24;;;;;;;;;;;;;;;20.95;95.00;152919.53;1666886;85;21251;-60
2022/06/27 00:55:51;;;;;;;;;;;;;;;20.92;95.03;152912.98;1688679;85;20150;-60
2022/06/27 00:58:18;;;;;;;;;;;;;;;20.93;95.01;152914.31;1688864;85;20167;-60
2022/06/27 01:00:45;;;;;;;;;;;;;;;20.91;95.16;152910.38;1688592;85;20164;-60
2022/06/27 01:03:13;;;;;;;;;;;;;;;20.92;95.12;152911.70;1688493;85;20213;-61
2022/06/27 01:05:51;;;;;;;;;;;;;;;20.90;95.14;152907.77;1688498;85;21259;-60
2022/06/27 01:08:08;;;;;;;;;;;;;;;20.89;95.16;152906.48;1686991;85;20147;-59
2022/06/27 01:10:35;;;;;;;;;;;;;;;20.86;95.28;152897.31;1688635;85;20179;-61
2022/06/27 01:13:02;;;;;;;;;;;;;;;20.87;95.36;152899.94;1688607;85;20179;-60
2022/06/27 01:15:28;;;;;;;;;;;;;;;20.87;95.28;152901.22;1688714;85;20479;-60
2022/06/27 01:17:55;;;;;;;;;;;;;;;20.88;95.34;152902.53;1688485;84;21162;-60
2022/06/27 01:20:22;;;;;;;;;;;;;;;20.91;95.10;152909.09;1688740;85;20425;-60
2022/06/27 01:22:49;;;;;;;;;;;;;;;20.90;95.00;152907.77;1688723;85;20453;-60
2022/06/27 01:25:16;;;;;;;;;;;;;;;20.88;95.04;152902.53;1688639;85;20171;-60
2022/06/27 01:27:44;;;;;;;;;;;;;;;20.87;95.20;152901.22;1688716;85;20175;-60
2022/06/27 01:30:11;;;;;;;;;;;;;;;20.89;95.06;152905.16;1688621;85;21150;-60
2022/06/27 01:32:42;;;;;;;;;;;;;;;20.88;94.78;152903.81;1688609;85;20173;-59
2022/06/27 01:35:09;;;;;;;;;;;;;;;20.88;94.85;152903.81;1688723;85;20172;-59
2022/06/27 01:37:35;;;;;;;;;;;;;;;20.88;94.81;152902.53;1688642;85;20612;-59
2022/06/27 01:40:24;;;;;;;;;;;;;;;20.88;94.93;152902.53;1688557;85;20187;-59
2022/06/27 01:42:51;;;;;;;;;;;;;;;20.88;95.02;152903.81;1682742;85;21096;-59
2022/06/27 01:45:18;;;;;;;;;;;;;;;20.89;94.99;152906.48;1683046;85;20227;-59
2022/06/27 01:47:45;;;;;;;;;;;;;;;20.89;94.95;152905.16;1683566;84;20447;-59
2022/06/27 01:50:12;;;;;;;;;;;;;;;20.87;94.84;152901.22;1683395;84;20708;-59
2022/06/27 01:52:43;;;;;;;;;;;;;;;20.84;94.78;152893.38;1683038;84;20222;-59
2022/06/27 01:55:10;;;;;;;;;;;;;;;20.83;94.74;152890.77;1683115;85;21247;-59
2022/06/27 01:57:37;;;;;;;;;;;;;;;20.82;94.63;152888.16;1683170;84;20487;-59
2022/06/27 02:00:06;;;;;;;;;;;;;;;20.80;94.57;152882.94;1682928;84;20202;-60
2022/06/27 02:02:35;;;;;;;;;;;;;;;20.77;94.55;152875.05;1679859;85;20203;-60
2022/06/27 02:05:03;;;;;;;;;;;;;;;20.75;94.69;152871.11;1682943;84;20567;-60
2022/06/27 02:07:30;;;;;;;;;;;;;;;20.75;94.67;152869.83;1682911;85;21137;-58
2022/06/27 02:09:56;;;;;;;;;;;;;;;20.72;94.74;152863.28;1683014;85;20229;-60
2022/06/27 02:12:23;;;;;;;;;;;;;;;20.76;94.90;152872.44;1683270;85;20198;-58
2022/06/27 02:14:52;;;;;;;;;;;;;;;20.76;94.82;152872.44;1664009;85;20721;-59
2022/06/27 02:17:21;;;;;;;;;;;;;;;20.79;94.77;152880.28;1683380;85;20195;-58
2022/06/27 02:19:48;;;;;;;;;;;;;;;20.78;94.71;152877.66;1683065;85;21110;-58
2022/06/27 02:22:16;;;;;;;;;;;;;;;20.79;94.65;152880.28;1683040;84;20541;-58
2022/06/27 02:24:42;;;;;;;;;;;;;;;20.82;94.54;152886.88;1683356;84;20135;-59
2022/06/27 02:27:09;;;;;;;;;;;;;;;20.83;94.40;152890.77;1683041;84;20172;-59
2022/06/27 02:29:36;;;;;;;;;;;;;;;20.84;94.04;152893.38;1683205;85;20206;-59
2022/06/27 02:32:03;;;;;;;;;;;;;;;20.85;93.90;152895.98;1683121;84;21342;-59
2022/06/27 02:34:30;;;;;;;;;;;;;;;20.84;93.84;152893.38;1683545;85;20202;-59
2022/06/27 02:36:58;;;;;;;;;;;;;;;20.84;93.88;152892.09;1641104;85;20182;-59
2022/06/27 02:39:25;;;;;;;;;;;;;;;20.84;93.99;152892.09;1683190;84;20503;-59
2022/06/27 02:41:54;;;;;;;;;;;;;;;20.84;94.03;152892.09;1705144;82;20190;-59
2022/06/27 02:44:21;;;;;;;;;;;;;;;20.83;94.14;152890.77;1724275;82;21243;-59
2022/06/27 02:46:49;;;;;;;;;;;;;;;20.86;94.13;152898.59;1723328;82;20434;-59
2022/06/27 02:49:16;;;;;;;;;;;;;;;20.85;94.09;152895.98;1708295;83;20179;-60
2022/06/27 02:51:52;;;;;;;;;;;;;;;20.86;94.11;152898.59;1687681;84;20181;-59
2022/06/27 02:54:24;;;;;;;;;;;;;;;20.89;94.02;152905.16;1707923;84;20167;-59
2022/06/27 02:56:59;;;;;;;;;;;;;;;20.91;93.88;152909.09;1707786;83;21110;-59
2022/06/27 02:59:28;;;;;;;;;;;;;;;20.93;93.74;152915.59;1687442;85;20486;-59
2022/06/27 03:01:56;;;;;;;;;;;;;;;20.96;93.54;152923.44;1712998;82;20175;-59
2022/06/27 03:04:25;;;;;;;;;;;;;;;20.98;93.35;152927.38;1706894;83;20727;-59
2022/06/27 03:06:52;;;;;;;;;;;;;;;20.98;93.33;152927.38;1688404;83;20206;-60
2022/06/27 03:09:19;;;;;;;;;;;;;;;21.01;93.36;152935.20;1689040;84;21335;-60
2022/06/27 03:11:51;;;;;;;;;;;;;;;21.01;93.19;152936.53;1712851;83;20465;-59
2022/06/27 03:14:16;;;;;;;;;;;;;;;21.07;93.05;152950.88;1688230;84;20175;-60
2022/06/27 03:16:43;;;;;;;;;;;;;;;21.11;92.78;152961.38;1712671;83;20453;-60
2022/06/27 03:19:11;;;;;;;;;;;;;;;21.13;92.63;152966.59;1688510;84;20217;-60
2022/06/27 03:21:43;;;;;;;;;;;;;;;21.15;92.46;152970.48;1688820;84;20662;-60
2022/06/27 03:24:10;;;;;;;;;;;;;;;21.15;92.51;152970.48;1712849;83;20171;-60
2022/06/27 03:26:39;;;;;;;;;;;;;;;21.17;92.56;152975.70;1688385;84;20131;-59
2022/06/27 03:29:06;;;;;;;;;;;;;;;21.21;92.43;152984.88;1707887;83;20159;-59
2022/06/27 03:31:33;;;;;;;;;;;;;;;21.24;92.32;152992.72;1688383;84;20206;-59
2022/06/27 03:34:00;;;;;;;;;;;;;;;21.26;92.13;152997.94;1712684;83;21070;-58
2022/06/27 03:36:28;;;;;;;;;;;;;;;21.26;92.05;152997.94;1708071;83;20169;-59
2022/06/27 03:38:55;;;;;;;;;;;;;;;21.27;92.04;153000.55;1708232;84;20171;-59
2022/06/27 03:41:23;;;;;;;;;;;;;;;21.30;91.96;153008.38;1686951;84;20190;-59
2022/06/27 03:43:50;;;;;;;;;;;;;;;21.35;91.73;153021.50;1659926;85;20196;-60
2022/06/27 03:46:17;;;;;;;;;;;;;;;21.38;91.58;153029.33;1659368;85;21401;-60
2022/06/27 03:51:49;;;;;;;;;;;;;;;21.41;91.32;153035.83;1659024;85;20191;-60
2022/06/27 03:54:16;;;;;;;;;;;;;;;21.46;91.46;153050.22;1659342;85;20422;-59
2022/06/27 03:56:43;;;;;;;;;;;;;;;21.52;91.33;153063.28;1659329;86;20175;-60
2022/06/27 03:59:09;;;;;;;;;;;;;;;21.58;91.21;153079.00;1659375;86;21225;-60
2022/06/27 04:01:36;;;;;;;;;;;;;;;21.62;90.70;153089.45;1659309;86;20152;-59
2022/06/27 04:04:03;;;;;;;;;;;;;;;21.65;90.51;153097.34;1659336;86;20172;-60
2022/06/27 04:06:29;;;;;;;;;;;;;;;21.67;90.33;153101.28;1659423;86;20215;-60
2022/06/27 04:08:56;;;;;;;;;;;;;;;21.71;90.13;153113.02;1647711;86;20156;-60
2022/06/27 04:11:24;;;;;;;;;;;;;;;21.76;89.97;153124.80;1648036;86;21312;-59
2022/06/27 04:13:52;;;;;;;;;;;;;;;21.82;89.68;153140.47;1659274;86;20212;-59
2022/06/27 04:16:38;;;;;;;;;;;;;;;21.89;89.46;153157.48;1659639;85;20177;-59
2022/06/27 04:19:21;;;;;;;;;;;;;;;21.96;89.03;153175.78;1659440;86;20161;-59
2022/06/27 04:21:59;;;;;;;;;;;;;;;22.03;88.66;153194.11;1659492;85;20457;-60
2022/06/27 04:24:28;;;;;;;;;;;;;;;22.12;88.30;153215.02;1648023;86;21104;-60
2022/06/27 04:26:57;;;;;;;;;;;;;;;22.19;87.76;153233.31;1659331;85;20412;-60
2022/06/27 04:29:26;;;;;;;;;;;;;;;22.23;87.54;153243.81;1659392;86;20243;-60
2022/06/27 04:31:53;;;;;;;;;;;;;;;22.25;86.99;153249.03;1659417;85;20463;-61
2022/06/27 04:34:20;;;;;;;;;;;;;;;22.26;87.00;153250.33;1659660;85;20131;-61
2022/06/27 04:36:47;;;;;;;;;;;;;;;22.32;86.95;153266.00;1659478;86;21254;-61
2022/06/27 04:39:17;;;;;;;;;;;;;;;22.39;86.79;153283.02;1659297;86;20391;-61
2022/06/27 04:41:50;;;;;;;;;;;;;;;22.45;86.58;153298.75;1666208;85;20168;-61
2022/06/27 04:44:20;;;;;;;;;;;;;;;22.51;86.01;153314.48;1688836;84;20194;-61
2022/06/27 04:46:48;;;;;;;;;;;;;;;22.56;85.80;153327.55;1720971;83;20175;-60
2022/06/27 04:49:20;;;;;;;;;;;;;;;22.64;85.80;153345.84;1719890;83;21164;-60
2022/06/27 04:51:49;;;;;;;;;;;;;;;22.74;85.90;153372.03;1693733;84;20439;-60
2022/06/27 04:54:18;;;;;;;;;;;;;;;22.82;85.56;153391.67;1720060;83;20186;-60
2022/06/27 04:56:44;;;;;;;;;;;;;;;22.89;85.22;153411.30;1693587;84;20217;-60
2022/06/27 04:59:11;;;;;;;;;;;;;;;22.92;84.81;153417.81;1693466;84;20203;-60
2022/06/27 05:01:39;;;;;;;;;;;;;;;22.98;84.38;153432.22;1720199;83;21888;-60
2022/06/27 05:04:07;;;;;;;;;;;;;;;22.97;83.91;153429.59;1720180;83;20411;-60
2022/06/27 05:06:36;;;;;;;;;;;;;;;22.99;83.86;153434.83;1693947;84;20449;-60
2022/06/27 05:09:04;;;;;;;;;;;;;;;23.04;83.88;153449.23;1720490;83;20207;-60
2022/06/27 05:11:33;;;;;;;;;;;;;;;23.08;83.51;153457.08;1728729;81;20656;-61
2022/06/27 05:14:00;;;;;;;;;;;;;;;23.10;83.08;153463.64;1721084;83;21247;-59
2022/06/27 05:16:41;;;;;;;;;;;;;;;23.17;82.99;153480.63;1692032;84;20464;-59
2022/06/27 05:19:09;;;;;;;;;;;;;;;23.29;83.07;153510.77;1693881;84;20175;-60
2022/06/27 05:21:36;;;;;;;;;;;;;;;23.42;82.30;153544.81;1720579;83;20159;-61
2022/06/27 05:24:04;;;;;;;;;;;;;;;23.54;81.93;153574.91;1693072;84;20230;-61
2022/06/27 05:26:31;;;;;;;;;;;;;;;23.66;81.27;153605.02;1728598;81;20668;-59
2022/06/27 05:28:58;;;;;;;;;;;;;;;23.68;80.71;153610.25;1720643;83;20523;-60
2022/06/27 05:31:24;;;;;;;;;;;;;;;23.71;80.20;153618.09;1728958;83;20159;-60
2022/06/27 05:33:51;;;;;;;;;;;;;;;23.74;80.55;153624.66;1728663;82;20139;-61
2022/06/27 05:36:19;;;;;;;;;;;;;;;23.89;79.93;153662.61;1693659;84;20206;-60
2022/06/27 05:38:46;;;;;;;;;;;;;;;24.03;79.28;153698.00;1720961;83;21216;-60
2022/06/27 05:41:14;;;;;;;;;;;;;;;24.20;78.54;153741.19;1728608;83;20129;-60
2022/06/27 05:43:41;;;;;;;;;;;;;;;24.30;77.86;153766.08;1685622;83;20459;-58
2022/06/27 05:46:08;;;;;;;;;;;;;;;24.40;77.30;153792.28;1718653;83;20206;-60
2022/06/27 05:48:44;;;;;;;;;;;;;;;24.46;76.92;153806.70;1717181;82;20209;-60
2022/06/27 05:51:20;;;;;;;;;;;;;;;24.57;76.46;153835.48;1707960;83;21228;-60
2022/06/27 05:53:48;;;;;;;;;;;;;;;24.69;76.08;153864.33;1718917;83;20205;-60
2022/06/27 05:56:15;;;;;;;;;;;;;;;24.79;75.57;153890.56;1718968;82;20511;-59
2022/06/27 05:58:42;;;;;;;;;;;;;;;24.86;74.87;153908.88;1718960;83;20151;-60
2022/06/27 06:01:10;;;;;;;;;;;;;;;24.95;74.47;153931.14;1718946;83;20156;-60
2022/06/27 06:03:38;;;;;;;;;;;;;;;24.94;74.01;153928.53;1718866;83;21199;-60
2022/06/27 06:06:06;;;;;;;;;;;;;;;24.94;74.19;153927.25;1718740;83;20217;-60
2022/06/27 06:08:36;;;;;;;;;;;;;;;25.00;73.90;153942.95;1718303;82;20225;-59
2022/06/27 06:11:03;;;;;;;;;;;;;;;25.02;73.76;153949.52;1685829;83;20187;-59
2022/06/27 06:13:30;;;;;;;;;;;;;;;25.09;73.94;153966.56;1718866;82;20178;-59
2022/06/27 06:15:59;;;;;;;;;;;;;;;25.21;73.57;153995.36;1719079;82;21934;-64
2022/06/27 06:18:27;;;;;;;;;;;;;;;25.31;73.25;154021.53;1718900;83;20166;-59
2022/06/27 06:20:55;;;;;;;;;;;;;;;25.40;73.20;154045.16;1718061;82;20548;-59
2022/06/27 06:23:24;;;;;;;;;;;;;;;25.44;71.75;154055.62;1721183;82;20171;-59
2022/06/27 06:25:50;;;;;;;;;;;;;;;25.38;71.47;154039.91;1727816;82;20350;-59
2022/06/27 06:28:17;;;;;;;;;;;;;;;25.29;71.22;154016.30;1715545;82;21315;-59
2022/06/27 06:30:44;;;;;;;;;;;;;;;25.22;71.46;153997.97;1712627;83;20197;-62
2022/06/27 06:33:11;;;;;;;;;;;;;;;25.14;71.45;153979.66;1712415;83;20207;-62
2022/06/27 06:35:39;;;;;;;;;;;;;;;25.09;71.33;153966.56;1713358;82;20191;-60
2022/06/27 06:38:06;;;;;;;;;;;;;;;25.01;71.13;153946.91;1720314;82;20183;-59
2022/06/27 06:40:33;;;;;;;;;;;;;;;24.93;71.45;153924.63;1718714;82;21233;-59
2022/06/27 06:43:00;;;;;;;;;;;;;;;24.95;71.35;153931.14;1722654;82;20216;-59
2022/06/27 06:45:32;;;;;;;;;;;;;;;24.93;71.09;153924.63;1712130;83;20235;-60
2022/06/27 06:48:16;;;;;;;;;;;;;;;24.94;71.11;153927.25;1717020;83;20244;-59
2022/06/27 06:50:43;;;;;;;;;;;;;;;25.03;70.64;153950.80;1717875;83;20165;-59
2022/06/27 06:53:13;;;;;;;;;;;;;;;25.07;70.23;153961.28;1709580;83;21730;-59
2022/06/27 06:55:40;;;;;;;;;;;;;;;25.15;70.44;153982.27;1686193;85;20235;-60
2022/06/27 06:58:07;;;;;;;;;;;;;;;25.22;70.07;153999.31;1712065;84;20140;-60
2022/06/27 07:00:33;;;;;;;;;;;;;;;25.30;69.77;154018.92;1711325;83;20198;-60
2022/06/27 07:03:01;;;;;;;;;;;;;;;25.40;69.18;154045.16;1707350;83;20184;-60
2022/06/27 07:05:31;;;;;;;;;;;;;;;25.45;68.67;154058.25;1683001;85;23128;-60
2022/06/27 07:07:57;;;;;;;;;;;;;;;25.46;68.15;154060.86;1659005;86;20308;-60
2022/06/27 07:10:25;;;;;;;;;;;;;;;25.44;68.29;154055.62;1688019;85;20198;-60
2022/06/27 07:12:52;;;;;;;;;;;;;;;25.42;68.66;154050.39;1686834;85;20191;-58
2022/06/27 07:15:19;;;;;;;;;;;;;;;25.49;68.00;154066.14;1684930;85;20453;-60
2022/06/27 07:17:48;;;;;;;;;;;;;;;25.44;68.17;154054.34;1703007;83;22099;-59
2022/06/27 07:20:18;;;;;;;;;;;;;;;25.46;68.33;154060.86;1713234;83;20187;-59
2022/06/27 07:22:48;;;;;;;;;;;;;;;25.51;68.09;154071.37;1712955;83;20178;-59
2022/06/27 07:25:15;;;;;;;;;;;;;;;25.63;67.43;154102.86;1713562;83;20487;-58
2022/06/27 07:27:42;;;;;;;;;;;;;;;25.74;66.63;154131.66;1713036;83;21073;-59
2022/06/27 07:30:10;;;;;;;;;;;;;;;25.76;66.57;154134.33;1712995;82;21852;-60
2022/06/27 07:32:41;;;;;;;;;;;;;;;25.88;66.45;154167.09;1714004;83;20226;-59
2022/06/27 07:35:11;;;;;;;;;;;;;;;25.99;66.01;154194.61;1713463;82;20182;-59
2022/06/27 07:37:44;;;;;;;;;;;;;;;26.15;65.68;154233.91;1713119;82;20175;-60
2022/06/27 07:40:09;;;;;;;;;;;;;;;26.29;64.45;154270.67;1713204;83;20168;-60
2022/06/27 07:42:38;;;;;;;;;;;;;;;26.39;63.65;154294.25;1712956;83;21318;-60
2022/06/27 07:45:07;;;;;;;;;;;;;;;26.41;63.81;154299.48;1709750;83;20353;-60
2022/06/27 07:47:36;;;;;;;;;;;;;;;26.52;63.82;154327.03;1710222;84;20175;-60
2022/06/27 07:50:05;;;;;;;;;;;;;;;26.65;63.05;154361.13;1709440;84;20175;-60
2022/06/27 07:53:11;;;;;;;;;;;;;;;26.74;62.42;154384.72;1710767;84;20183;-60
2022/06/27 07:55:01;;;;;;;;;;;;;;;26.81;62.36;154401.77;1708831;83;20910;-59
2022/06/27 07:57:28;;;;;;;;;;;;;;;26.84;61.12;154408.34;1709285;82;20416;-59
2022/06/27 07:59:57;;;;;;;;;;;;;;;26.81;61.16;154401.77;1710405;84;20170;-59
2022/06/27 08:02:23;;;;;;;;;;;;;;;26.79;61.27;154395.25;1709728;82;20491;-60
2022/06/27 08:04:52;;;;;;;;;;;;;;;26.79;61.20;154396.53;1710404;82;20171;-60
2022/06/27 08:07:18;;;;;;;;;;;;;;;26.82;60.37;154404.39;1710135;84;20739;-60
2022/06/27 08:09:45;;;;;;;;;;;;;;;26.84;60.41;154409.64;1709092;84;20179;-60
2022/06/27 08:12:13;;;;;;;;;;;;;;;26.93;59.90;154430.70;1685069;84;20209;-60
2022/06/27 08:14:41;;;;;;;;;;;;;;;27.01;59.23;154451.66;1674703;84;20316;-60
2022/06/27 08:17:08;;;;;;;;;;;;;;;27.11;58.97;154477.91;1665212;84;20178;-60
2022/06/27 08:19:36;;;;;;;;;;;;;;;27.22;59.00;154504.13;1656361;85;21274;-59
2022/06/27 08:22:04;;;;;;;;;;;;;;;27.36;58.58;154540.88;1656720;86;20273;-60
2022/06/27 08:24:31;;;;;;;;;;;;;;;27.49;57.69;154572.31;1710040;82;20693;-60
2022/06/27 08:26:59;;;;;;;;;;;;;;;27.66;57.59;154616.98;1708163;83;20205;-60
2022/06/27 08:29:27;;;;;;;;;;;;;;;27.84;56.37;154662.89;1710407;83;20163;-60
2022/06/27 08:31:54;;;;;;;;;;;;;;;27.93;55.42;154683.92;1710332;84;21143;-60
2022/06/27 08:34:22;;;;;;;;;;;;;;;27.96;54.78;154693.06;1710431;84;20160;-60
2022/06/27 08:36:50;;;;;;;;;;;;;;;28.02;54.54;154708.84;1710225;84;20152;-60
2022/06/27 08:39:18;;;;;;;;;;;;;;;28.09;53.88;154725.92;1709855;84;20173;-60
2022/06/27 08:41:45;;;;;;;;;;;;;;;28.17;53.37;154745.61;1710478;83;20199;-60
2022/06/27 08:44:12;;;;;;;;;;;;;;;28.26;52.78;154769.27;1711870;82;21241;-61
2022/06/27 08:46:41;;;;;;;;;;;;;;;28.28;52.67;154774.50;1693667;83;20218;-61
2022/06/27 08:49:08;;;;;;;;;;;;;;;28.30;51.22;154779.75;1707328;83;20228;-60
2022/06/27 08:51:37;;;;;;;;;;;;;;;28.29;50.82;154777.12;1705464;84;20717;-61
2022/06/27 08:54:04;;;;;;;;;;;;;;;28.25;50.61;154766.64;1705332;84;20200;-60
2022/06/27 08:56:31;;;;;;;;;;;;;;;28.24;50.46;154764.02;1705428;84;21226;-60
2022/06/27 08:58:59;;;;;;;;;;;;;;;28.25;49.94;154766.64;1705364;84;20193;-59
2022/06/27 09:01:27;;;;;;;;;;;;;;;28.24;50.72;154764.02;1705442;83;20213;-60
2022/06/27 09:04:00;;;;;;;;;;;;;;;28.29;49.97;154775.80;1708790;83;20182;-60
2022/06/27 09:06:29;;;;;;;;;;;;;;;28.37;49.92;154795.48;1704958;84;20516;-61
2022/06/27 09:09:08;;;;;;;;;;;;;;;28.47;47.93;154821.77;1705326;83;20654;-61
2022/06/27 09:11:37;;;;;;;;;;;;;;;28.57;48.15;154847.98;1711473;83;20159;-60
2022/06/27 09:14:05;;;;;;;;;;;;;;;28.70;47.72;154879.52;1710409;83;20384;-60
2022/06/27 09:16:35;;;;;;;;;;;;;;;28.82;47.36;154911.05;1713388;83;20623;-60
2022/06/27 09:19:02;;;;;;;;;;;;;;;28.85;48.22;154917.63;1713683;82;20198;-61
2022/06/27 09:21:28;;;;;;;;;;;;;;;28.87;48.08;154924.22;1711974;83;20592;-61
2022/06/27 09:23:58;;;;;;;;;;;;;;;28.94;48.80;154939.95;1712878;83;20167;-61
2022/06/27 09:26:35;;;;;;;;;;;;;;;28.99;48.25;154953.06;1712144;82;20187;-59
2022/06/27 09:29:08;;;;;;;;;;;;;;;29.00;46.94;154955.69;1713713;83;20158;-60
2022/06/27 09:31:39;;;;;;;;;;;;;;;28.99;47.50;154953.06;1711646;82;20218;-60
2022/06/27 09:34:19;;;;;;;;;;;;;;;29.04;47.04;154966.19;1710679;83;21232;-60
2022/06/27 09:37:01;;;;;;;;;;;;;;;29.15;46.64;154995.09;1705934;83;20148;-60
2022/06/27 09:39:35;;;;;;;;;;;;;;;29.34;46.35;155042.38;1713807;83;20184;-60
2022/06/27 09:42:06;;;;;;;;;;;;;;;29.55;44.87;155094.95;1713409;82;20191;-60
2022/06/27 09:44:38;;;;;;;;;;;;;;;29.72;44.92;155139.56;1721467;83;20651;-60
2022/06/27 09:47:18;;;;;;;;;;;;;;;29.81;44.66;155161.91;1725508;82;21731;-60
2022/06/27 09:49:46;;;;;;;;;;;;;;;29.78;44.83;155154.03;1709961;83;20092;-60
2022/06/27 09:52:20;;;;;;;;;;;;;;;29.81;44.68;155161.91;1709376;83;20209;-61
2022/06/27 09:54:48;;;;;;;;;;;;;;;29.84;43.66;155168.48;1708456;84;20204;-61
2022/06/27 09:57:16;;;;;;;;;;;;;;;29.86;43.35;155173.73;1708357;84;20502;-60
2022/06/27 09:59:44;;;;;;;;;;;;;;;29.94;42.78;155193.44;1710374;82;22039;-61
2022/06/27 10:02:13;;;;;;;;;;;;;;;29.97;41.49;155202.66;1711670;82;20206;-61
2022/06/27 10:04:40;;;;;;;;;;;;;;;30.03;40.36;155215.83;1710562;84;20174;-61
2022/06/27 10:07:08;;;;;;;;;;;;;;;30.07;40.17;155226.33;1709960;83;20120;-61
2022/06/27 10:09:40;;;;;;;;;;;;;;;30.17;40.15;155252.58;1710103;84;20127;-61
2022/06/27 10:12:25;;;;;;;;;;;;;;;30.31;40.07;155288.09;1709249;83;21088;-61
2022/06/27 10:15:14;;;;;;;;;;;;;;;30.47;39.34;155328.81;1710420;82;20166;-61
2022/06/27 10:17:49;;;;;;;;;;;;;;;30.64;39.05;155370.92;1710714;83;20172;-61
2022/06/27 10:20:23;;;;;;;;;;;;;;;30.80;39.46;155412.94;1713735;82;20427;-61
2022/06/27 10:23:18;;;;;;;;;;;;;;;30.92;38.97;155441.88;1724707;82;20211;-62
2022/06/27 10:25:45;;;;;;;;;;;;;;;30.96;38.26;155452.38;1723749;83;21239;-62
2022/06/27 10:28:15;;;;;;;;;;;;;;;30.87;37.83;155431.38;1718451;83;20164;-62
2022/06/27 10:30:56;;;;;;;;;;;;;;;30.89;38.27;155434.00;1707996;84;20187;-62
2022/06/27 10:33:26;;;;;;;;;;;;;;;30.92;37.43;155441.88;1709162;84;20160;-62
2022/06/27 10:36:02;;;;;;;;;;;;;;;30.92;37.31;155441.88;1708833;83;20150;-62
2022/06/27 10:38:33;;;;;;;;;;;;;;;30.96;37.17;155452.38;1708422;84;21062;-61
2022/06/27 10:41:00;;;;;;;;;;;;;;;31.02;36.86;155468.13;1708211;84;20177;-61
2022/06/27 10:43:40;;;;;;;;;;;;;;;30.97;37.03;155456.34;1707523;83;20482;-60
2022/06/27 10:46:13;;;;;;;;;;;;;;;30.85;37.69;155424.78;1701241;84;20192;-61
2022/06/27 10:48:46;;;;;;;;;;;;;;;30.72;38.59;155391.94;1701822;84;20451;-61
2022/06/27 10:51:28;;;;;;;;;;;;;;;30.58;39.28;155357.69;1705692;84;21928;-62
2022/06/27 10:54:07;;;;;;;;;;;;;;;30.41;39.82;155313.06;1707601;83;20282;-61
2022/06/27 10:56:39;;;;;;;;;;;;;;;30.27;40.70;155278.88;1707772;83;20144;-62
2022/06/27 10:59:09;;;;;;;;;;;;;;;30.20;40.64;155259.17;1702188;84;20205;-62
2022/06/27 11:01:36;;;;;;;;;;;;;;;30.15;40.30;155248.67;1684677;84;20156;-61
2022/06/27 11:04:03;;;;;;;;;;;;;;;30.12;40.33;155239.45;1706760;84;21142;-62
2022/06/27 11:06:30;;;;;;;;;;;;;;;30.03;40.29;155215.83;1707812;84;20482;-61
2022/06/27 11:08:56;;;;;;;;;;;;;;;29.96;40.82;155200.03;1707987;84;20199;-61
2022/06/27 11:11:27;;;;;;;;;;;;;;;29.94;41.22;155194.73;1706347;83;20412;-60
2022/06/27 11:14:01;;;;;;;;;;;;;;;29.93;41.21;155190.81;1705613;84;20191;-61
2022/06/27 11:16:30;;;;;;;;;;;;;;;29.85;41.22;155172.44;1704587;84;21090;-61
2022/06/27 11:19:03;;;;;;;;;;;;;;;29.82;40.52;155163.23;1703773;84;20183;-62
2022/06/27 11:21:35;;;;;;;;;;;;;;;29.78;40.04;155154.03;1705403;83;20234;-61
2022/06/27 11:24:06;;;;;;;;;;;;;;;29.74;40.62;155143.53;1705856;84;20179;-61
2022/06/27 11:26:34;;;;;;;;;;;;;;;29.68;40.89;155127.78;1705368;83;20218;-61
2022/06/27 11:32:01;;;;;;;;;;;;;;;29.70;40.03;155134.31;1706502;83;20468;-61
2022/06/27 11:34:29;;;;;;;;;;;;;;;29.83;39.30;155165.86;1703573;84;20187;-62
2022/06/27 11:36:57;;;;;;;;;;;;;;;29.92;38.49;155189.48;1705982;84;20572;-62
2022/06/27 11:39:30;;;;;;;;;;;;;;;29.98;37.94;155205.28;1705813;83;20140;-61
2022/06/27 11:42:00;;;;;;;;;;;;;;;30.04;37.95;155218.45;1705481;84;21146;-63
2022/06/27 11:44:27;;;;;;;;;;;;;;;30.12;38.04;155239.45;1703355;83;20226;-62
2022/06/27 11:47:07;;;;;;;;;;;;;;;30.17;38.18;155252.58;1712953;83;20199;-61
2022/06/27 11:49:38;;;;;;;;;;;;;;;30.21;38.56;155261.78;1712619;83;20187;-61
2022/06/27 11:52:07;;;;;;;;;;;;;;;30.24;38.54;155271.00;1713673;83;20179;-62
2022/06/27 11:54:43;;;;;;;;;;;;;;;30.26;38.83;155274.92;1713909;82;21876;-62
2022/06/27 11:57:25;;;;;;;;;;;;;;;30.33;38.15;155292.00;1714287;82;20466;-63
2022/06/27 11:59:53;;;;;;;;;;;;;;;30.47;38.41;155328.81;1717499;82;20184;-61
2022/06/27 12:02:32;;;;;;;;;;;;;;;30.62;38.27;155365.63;1720162;82;20143;-62
2022/06/27 12:05:06;;;;;;;;;;;;;;;30.73;38.04;155395.89;1745780;82;20197;-62
2022/06/27 12:07:55;;;;;;;;;;;;;;;30.87;37.95;155431.38;1744360;82;21072;-62
2022/06/27 12:10:40;;;;;;;;;;;;;;;31.01;37.31;155465.50;1715346;81;20123;-62
2022/06/27 12:13:13;;;;;;;;;;;;;;;31.18;36.57;155507.58;1744022;82;20496;-62
2022/06/27 12:15:41;;;;;;;;;;;;;;;31.19;36.20;155510.20;1742166;82;21018;-62
2022/06/27 12:18:12;;;;;;;;;;;;;;;31.15;36.57;155502.33;1715547;82;20223;-62
2022/06/27 12:20:36;;;;;;;;;;;;;;;31.13;36.98;155497.06;1737989;82;21139;-62
2022/06/27 12:23:03;;;;;;;;;;;;;;;31.15;37.30;155502.33;1718698;82;20205;-62
2022/06/27 12:25:30;;;;;;;;;;;;;;;31.11;37.37;155490.48;1738047;82;20188;-62
2022/06/27 12:27:57;;;;;;;;;;;;;;;31.10;38.04;155489.19;1718334;82;20222;-62
2022/06/27 12:30:24;;;;;;;;;;;;;;;31.10;38.19;155487.86;1725315;82;20469;-62
2022/06/27 12:32:50;;;;;;;;;;;;;;;31.07;37.65;155481.31;1700862;82;21248;-62
2022/06/27 12:35:17;;;;;;;;;;;;;;;30.95;37.71;155451.09;1709030;82;20246;-62
2022/06/27 12:37:44;;;;;;;;;;;;;;;30.83;38.33;155420.81;1713569;82;20147;-60
2022/06/27 12:40:11;;;;;;;;;;;;;;;30.70;39.18;155386.67;1706887;82;20656;-60
2022/06/27 12:42:39;;;;;;;;;;;;;;;30.54;39.60;155347.19;1716339;82;20167;-60
2022/06/27 12:45:08;;;;;;;;;;;;;;;30.18;41.11;155253.92;1735843;82;20100;-61
2022/06/27 12:47:34;;;;;;;;;;;;;;;29.92;42.51;155189.48;1717275;82;20143;-62
2022/06/27 12:50:01;;;;;;;;;;;;;;;29.73;43.39;155140.91;1728773;82;20436;-56
2022/06/27 12:52:28;;;;;;;;;;;;;;;29.49;44.68;155079.16;1718953;82;20449;-65